Time;durP1;ratioP1;P1;durP2;ratioP2;P2;SDS_P1;SDS_P2;PMS_P1;PMS_P2;Temp;Humidity;BMP_temperature;BMP_pressure;BME280_temperature;BME280_humidity;BME280_pressure;Samples;Min_cycle;Max_cycle;Signal;HPM_P1;HPM_P2
2022/08/07 00:01:35;;;;;;;0.00;0.00;;;19.30;66.90;;;;;;4996073;28;20030;-76
2022/08/07 00:04:01;;;;;;;0.00;0.00;;;19.20;67.40;;;;;;4976516;28;20033;-76
2022/08/07 00:06:27;;;;;;;0.00;0.00;;;19.10;67.60;;;;;;4992290;28;20080;-76
2022/08/07 00:08:53;;;;;;;0.00;0.00;;;19.00;68.00;;;;;;4991481;28;20042;-76
2022/08/07 00:11:18;;;;;;;0.00;0.00;;;18.90;68.40;;;;;;4993461;28;20034;-76
2022/08/07 00:13:46;;;;;;;0.00;0.00;;;18.80;69.00;;;;;;4992074;28;20442;-77
2022/08/07 00:16:13;;;;;;;0.00;0.00;;;18.70;69.60;;;;;;4993028;28;20486;-77
2022/08/07 00:18:39;;;;;;;0.00;0.00;;;18.50;69.30;;;;;;4991983;28;20049;-76
2022/08/07 00:21:07;;;;;;;0.10;0.10;;;18.50;69.90;;;;;;4991786;28;20057;-76
2022/08/07 00:23:36;;;;;;;0.00;0.00;;;18.40;69.80;;;;;;4991498;28;20139;-76
2022/08/07 00:26:05;;;;;;;0.00;0.00;;;18.50;69.80;;;;;;4991705;28;20030;-76
2022/08/07 00:28:32;;;;;;;0.10;0.00;;;18.70;69.90;;;;;;4992074;28;20113;-76
2022/08/07 00:30:58;;;;;;;0.00;0.00;;;18.70;69.40;;;;;;4992504;28;20626;-76
2022/08/07 00:33:27;;;;;;;0.00;0.00;;;18.60;69.70;;;;;;4991371;28;20066;-76
2022/08/07 00:35:54;;;;;;;0.00;0.00;;;18.40;70.30;;;;;;4993146;28;20031;-76
2022/08/07 00:38:21;;;;;;;0.00;0.00;;;18.30;71.00;;;;;;4991911;28;20497;-76
2022/08/07 00:40:47;;;;;;;0.22;0.22;;;18.30;71.20;;;;;;4992534;28;20483;-75
2022/08/07 00:43:13;;;;;;;1.90;0.90;;;18.30;71.60;;;;;;4991531;28;20128;-76
2022/08/07 00:45:40;;;;;;;0.00;0.00;;;18.40;71.60;;;;;;4991579;28;20486;-76
2022/08/07 00:48:08;;;;;;;0.77;0.50;;;18.40;71.40;;;;;;4992864;28;20042;-76
2022/08/07 00:50:34;;;;;;;2.80;0.85;;;18.40;71.50;;;;;;4990820;28;20479;-76
2022/08/07 00:53:00;;;;;;;0.00;0.00;;;18.50;71.30;;;;;;4991148;28;20029;-75
2022/08/07 00:55:26;;;;;;;0.00;0.00;;;18.50;71.10;;;;;;4991245;28;20026;-75
2022/08/07 00:57:52;;;;;;;0.13;0.13;;;18.60;71.00;;;;;;4991344;28;20027;-76
2022/08/07 01:00:18;;;;;;;0.00;0.00;;;18.60;71.00;;;;;;4990783;28;20692;-76
2022/08/07 01:02:45;;;;;;;0.20;0.15;;;18.60;70.90;;;;;;4992015;28;20446;-76
2022/08/07 01:05:12;;;;;;;0.00;0.00;;;18.60;71.00;;;;;;4987515;28;20105;-76
2022/08/07 01:07:39;;;;;;;0.00;0.00;;;18.60;71.20;;;;;;4987385;28;20031;-76
2022/08/07 01:10:07;;;;;;;23.88;3.35;;;18.50;72.00;;;;;;5006586;28;20034;-76
2022/08/07 01:12:34;;;;;;;0.00;0.00;;;18.40;71.60;;;;;;4990763;28;20030;-76
2022/08/07 01:15:01;;;;;;;0.00;0.00;;;18.40;71.70;;;;;;4990958;28;20118;-76
2022/08/07 01:17:28;;;;;;;0.00;0.00;;;18.40;72.10;;;;;;4991133;28;20058;-75
2022/08/07 01:20:08;;;;;;;0.00;0.00;;;18.40;71.80;;;;;;4990312;28;20034;-76
2022/08/07 01:22:39;;;;;;;0.00;0.00;;;18.30;71.90;;;;;;4990837;28;20030;-76
2022/08/07 01:25:09;;;;;;;6.00;0.75;;;18.10;72.30;;;;;;4973050;28;20039;-76
2022/08/07 01:27:35;;;;;;;0.00;0.00;;;17.90;72.90;;;;;;4978106;23;20046;-77
2022/08/07 01:30:02;;;;;;;0.00;0.00;;;17.90;73.40;;;;;;4955873;28;20114;-77
2022/08/07 01:32:29;;;;;;;0.10;0.10;;;17.90;73.30;;;;;;4951575;29;20510;-77
2022/08/07 01:34:55;;;;;;;0.00;0.00;;;17.90;73.50;;;;;;4952417;29;20403;-77
2022/08/07 01:37:21;;;;;;;0.00;0.00;;;17.90;73.80;;;;;;4937910;29;20035;-77
2022/08/07 01:39:47;;;;;;;0.85;0.75;;;18.00;73.70;;;;;;4932879;29;20111;-77
2022/08/07 01:42:14;;;;;;;0.05;0.05;;;18.20;73.10;;;;;;4951581;29;20042;-77
2022/08/07 01:44:40;;;;;;;0.00;0.00;;;18.10;73.10;;;;;;4951915;29;20039;-77
2022/08/07 01:47:08;;;;;;;0.00;0.00;;;18.10;73.40;;;;;;4952037;28;20039;-77
2022/08/07 01:49:35;;;;;;;0.60;0.35;;;18.20;73.30;;;;;;4967394;28;20031;-77
2022/08/07 01:52:04;;;;;;;0.00;0.00;;;18.40;72.90;;;;;;4951485;29;20042;-77
2022/08/07 01:54:36;;;;;;;0.00;0.00;;;18.60;72.50;;;;;;4953051;29;20035;-76
2022/08/07 01:57:17;;;;;;;0.00;0.00;;;18.70;72.10;;;;;;4951815;28;20044;-77
2022/08/07 01:59:49;;;;;;;0.22;0.20;;;18.70;71.80;;;;;;4951720;29;20027;-77
2022/08/07 02:02:43;;;;;;;0.15;0.10;;;18.60;71.80;;;;;;4952626;28;20031;-77
2022/08/07 02:05:15;;;;;;;0.00;0.00;;;18.60;71.90;;;;;;4951736;29;20051;-77
2022/08/07 02:07:51;;;;;;;0.00;0.00;;;18.60;72.10;;;;;;4953044;28;20479;-77
2022/08/07 02:10:22;;;;;;;0.00;0.00;;;18.70;71.90;;;;;;4952377;29;20038;-76
2022/08/07 02:12:50;;;;;;;0.00;0.00;;;18.60;72.70;;;;;;4951477;29;20034;-77
2022/08/07 02:15:22;;;;;;;0.00;0.00;;;18.60;72.30;;;;;;4940679;29;20163;-77
2022/08/07 02:17:51;;;;;;;0.00;0.00;;;18.50;72.70;;;;;;4933430;29;20020;-77
2022/08/07 02:20:20;;;;;;;0.00;0.00;;;18.60;72.70;;;;;;4935803;29;20106;-77
2022/08/07 02:22:48;;;;;;;0.10;0.05;;;18.70;72.40;;;;;;4936128;29;20436;-77
2022/08/07 02:25:17;;;;;;;0.00;0.00;;;18.80;72.60;;;;;;4936322;29;20028;-77
2022/08/07 02:27:44;;;;;;;0.00;0.00;;;18.70;72.20;;;;;;4920300;29;20050;-77
2022/08/07 02:30:11;;;;;;;0.00;0.00;;;18.70;72.30;;;;;;4935778;29;20063;-77
2022/08/07 02:32:37;;;;;;;0.00;0.00;;;18.70;72.70;;;;;;4935708;29;20032;-77
2022/08/07 02:35:09;;;;;;;0.00;0.00;;;18.60;72.60;;;;;;4936081;29;20031;-77
2022/08/07 02:37:40;;;;;;;0.00;0.00;;;18.50;72.80;;;;;;4936944;29;20028;-77
2022/08/07 02:40:07;;;;;;;0.00;0.00;;;18.50;73.20;;;;;;4935998;29;20040;-77
2022/08/07 02:42:34;;;;;;;0.38;0.28;;;18.50;72.80;;;;;;4935783;29;20036;-77
2022/08/07 02:45:04;;;;;;;0.32;0.22;;;18.50;73.00;;;;;;4935804;29;20031;-77
2022/08/07 02:47:30;;;;;;;0.00;0.00;;;18.60;72.80;;;;;;4935781;29;20122;-76
2022/08/07 02:49:56;;;;;;;0.00;0.00;;;18.60;72.70;;;;;;4936588;29;20123;-77
2022/08/07 02:52:31;;;;;;;0.00;0.00;;;18.60;72.80;;;;;;4936885;29;20035;-77
2022/08/07 02:55:10;;;;;;;0.00;0.00;;;18.60;72.60;;;;;;4935667;29;20028;-77
2022/08/07 02:57:37;;;;;;;0.00;0.00;;;18.50;72.60;;;;;;4935316;29;20024;-77
2022/08/07 03:00:05;;;;;;;0.00;0.00;;;18.40;73.00;;;;;;4935435;29;20439;-77
2022/08/07 03:02:33;;;;;;;0.47;0.35;;;18.30;73.20;;;;;;4935200;29;20044;-77
2022/08/07 03:05:01;;;;;;;0.00;0.00;;;17.90;73.60;;;;;;4935916;29;20031;-77
2022/08/07 03:07:28;;;;;;;0.00;0.00;;;17.60;74.70;;;;;;4935513;29;20055;-77
2022/08/07 03:09:55;;;;;;;0.20;0.20;;;17.30;75.70;;;;;;4935137;29;20028;-76
2022/08/07 03:12:21;;;;;;;0.00;0.00;;;17.00;76.60;;;;;;4935143;29;20028;-76
2022/08/07 03:14:48;;;;;;;0.08;0.08;;;16.80;77.50;;;;;;4944033;29;20028;-76
2022/08/07 03:17:15;;;;;;;0.00;0.00;;;16.80;78.20;;;;;;4954531;28;20031;-77
2022/08/07 03:19:41;;;;;;;0.00;0.00;;;16.60;78.50;;;;;;4954011;29;20089;-77
2022/08/07 03:22:07;;;;;;;0.13;0.13;;;16.60;78.80;;;;;;4954083;29;20058;-76
2022/08/07 03:24:34;;;;;;;1.45;0.55;;;16.70;79.10;;;;;;4953607;29;20043;-77
2022/08/07 03:27:03;;;;;;;0.00;0.00;;;16.60;79.00;;;;;;4954030;28;20039;-76
2022/08/07 03:29:44;;;;;;;0.45;0.45;;;16.50;79.40;;;;;;4953066;28;20054;-77
2022/08/07 03:32:13;;;;;;;0.03;0.03;;;16.50;80.30;;;;;;4954206;29;20035;-76
2022/08/07 03:34:44;;;;;;;0.10;0.10;;;16.60;80.20;;;;;;4955264;28;20121;-77
2022/08/07 03:37:10;;;;;;;0.00;0.00;;;16.60;80.20;;;;;;4938402;29;20039;-77
2022/08/07 03:39:38;;;;;;;0.10;0.10;;;16.60;80.10;;;;;;4953522;29;20082;-77
2022/08/07 03:42:06;;;;;;;0.08;0.08;;;16.60;80.20;;;;;;4953854;29;20039;-77
2022/08/07 03:44:34;;;;;;;0.00;0.00;;;16.70;80.70;;;;;;4938240;29;20035;-76
2022/08/07 03:47:02;;;;;;;0.00;0.00;;;16.80;80.20;;;;;;4953827;28;20039;-76
2022/08/07 03:49:29;;;;;;;0.20;0.20;;;17.20;79.50;;;;;;4937326;29;20042;-75
2022/08/07 03:51:57;;;;;;;0.00;0.00;;;17.40;78.60;;;;;;4953798;29;20031;-74
2022/08/07 03:54:23;;;;;;;0.00;0.00;;;17.50;78.00;;;;;;4953518;29;20479;-75
2022/08/07 03:56:51;;;;;;;0.03;0.03;;;17.60;77.60;;;;;;4954036;28;20098;-75
2022/08/07 03:59:17;;;;;;;0.00;0.00;;;17.50;77.40;;;;;;4953367;29;20055;-75
2022/08/07 04:01:45;;;;;;;0.00;0.00;;;17.60;77.60;;;;;;4954885;29;20090;-75
2022/08/07 04:04:14;;;;;;;0.00;0.00;;;17.70;77.20;;;;;;4954176;28;20046;-75
2022/08/07 04:06:40;;;;;;;0.00;0.00;;;17.60;77.20;;;;;;4953822;28;20035;-75
2022/08/07 04:09:06;;;;;;;0.00;0.00;;;17.70;77.40;;;;;;4954466;29;20035;-75
2022/08/07 04:11:34;;;;;;;0.00;0.00;;;17.50;78.30;;;;;;4954613;29;20652;-75
2022/08/07 04:14:01;;;;;;;0.00;0.00;;;17.40;78.00;;;;;;4951638;29;20031;-75
2022/08/07 04:16:28;;;;;;;0.00;0.00;;;17.40;78.00;;;;;;4934550;29;20028;-75
2022/08/07 04:18:56;;;;;;;0.00;0.00;;;17.30;78.20;;;;;;4917879;29;20432;-76
2022/08/07 04:21:28;;;;;;;0.15;0.13;;;17.30;78.50;;;;;;4919645;29;20040;-76
2022/08/07 04:23:54;;;;;;;0.20;0.15;;;17.30;78.50;;;;;;4935021;29;20044;-76
2022/08/07 04:26:20;;;;;;;0.00;0.00;;;17.10;78.60;;;;;;4933942;29;20031;-76
2022/08/07 04:28:46;;;;;;;0.00;0.00;;;17.10;79.00;;;;;;4934695;29;20040;-76
2022/08/07 04:31:12;;;;;;;0.00;0.00;;;16.60;79.70;;;;;;4933869;29;20059;-75
2022/08/07 04:33:39;;;;;;;0.10;0.10;;;16.50;80.60;;;;;;4933151;29;20480;-75
2022/08/07 04:36:09;;;;;;;0.10;0.10;;;16.40;81.10;;;;;;4934156;29;20123;-75
2022/08/07 04:38:36;;;;;;;0.00;0.00;;;16.50;80.80;;;;;;4935113;29;20028;-75
2022/08/07 04:41:03;;;;;;;0.00;0.00;;;16.70;80.50;;;;;;4932675;29;20035;-75
2022/08/07 04:43:36;;;;;;;0.08;0.08;;;16.80;80.10;;;;;;4934310;29;20488;-75
2022/08/07 04:46:12;;;;;;;0.00;0.00;;;16.60;80.20;;;;;;4934941;29;20503;-75
2022/08/07 04:48:59;;;;;;;0.00;0.00;;;16.70;80.00;;;;;;4933561;29;20059;-75
2022/08/07 04:51:55;;;;;;;0.00;0.00;;;16.90;79.90;;;;;;4934929;29;20039;-75
2022/08/07 04:54:53;;;;;;;0.00;0.00;;;17.00;79.60;;;;;;4933063;29;20075;-76
2022/08/07 04:57:41;;;;;;;0.00;0.00;;;17.00;79.70;;;;;;4933409;29;20054;-75
2022/08/07 05:00:12;;;;;;;0.00;0.00;;;17.00;79.70;;;;;;4933145;29;20035;-75
2022/08/07 05:02:52;;;;;;;0.00;0.00;;;17.30;79.10;;;;;;4932845;29;20035;-75
2022/08/07 05:05:25;;;;;;;0.00;0.00;;;17.50;79.00;;;;;;4934909;29;20074;-75
2022/08/07 05:08:34;;;;;;;0.00;0.00;;;17.60;78.00;;;;;;4933745;29;20028;-76
2022/08/07 05:11:32;;;;;;;0.00;0.00;;;17.80;77.80;;;;;;4933987;29;20500;-76
2022/08/07 05:14:30;;;;;;;0.00;0.00;;;17.70;77.70;;;;;;4933181;29;20070;-73
2022/08/07 05:17:01;;;;;;;0.08;0.08;;;17.70;78.00;;;;;;4882601;28;20091;-72
2022/08/07 05:19:37;;;;;;;0.00;0.00;;;17.50;78.30;;;;;;4941164;29;20090;-73
2022/08/07 05:22:06;;;;;;;0.00;0.00;;;17.30;78.80;;;;;;4951878;29;20046;-73
2022/08/07 05:24:35;;;;;;;0.00;0.00;;;17.20;79.20;;;;;;4951974;29;20480;-72
2022/08/07 05:27:01;;;;;;;0.00;0.00;;;17.20;79.60;;;;;;4953341;28;20042;-73
2022/08/07 05:29:28;;;;;;;0.00;0.00;;;17.20;79.50;;;;;;4951751;29;20042;-73
2022/08/07 05:31:55;;;;;;;0.00;0.00;;;17.10;79.40;;;;;;4951992;29;20086;-73
2022/08/07 05:34:23;;;;;;;0.20;0.20;;;17.10;79.80;;;;;;4934753;29;20027;-74
2022/08/07 05:36:54;;;;;;;0.00;0.00;;;17.20;79.70;;;;;;4964617;28;20059;-76
2022/08/07 05:39:23;;;;;;;0.00;0.00;;;17.20;79.80;;;;;;4964658;28;20490;-71
2022/08/07 05:41:50;;;;;;;0.00;0.00;;;17.20;79.70;;;;;;4971804;28;20039;-72
2022/08/07 05:44:20;;;;;;;0.03;0.03;;;17.30;79.70;;;;;;4950261;28;20039;-70
2022/08/07 05:46:50;;;;;;;0.30;0.30;;;17.40;79.60;;;;;;4952818;28;20499;-72
2022/08/07 05:49:17;;;;;;;0.00;0.00;;;17.40;79.30;;;;;;4951029;29;20543;-70
2022/08/07 05:51:44;;;;;;;0.00;0.00;;;17.50;78.90;;;;;;4951785;29;20435;-71
2022/08/07 05:54:11;;;;;;;0.00;0.00;;;17.50;78.90;;;;;;4957067;28;20062;-71
2022/08/07 05:56:40;;;;;;;0.00;0.00;;;17.60;78.60;;;;;;4958943;28;20118;-70
2022/08/07 05:59:13;;;;;;;0.00;0.00;;;17.60;78.70;;;;;;4958929;28;20095;-72
2022/08/07 06:01:40;;;;;;;0.00;0.00;;;17.60;78.70;;;;;;4957344;29;20395;-71
2022/08/07 06:04:08;;;;;;;0.00;0.00;;;17.60;78.50;;;;;;4957314;28;20027;-70
2022/08/07 06:06:35;;;;;;;0.00;0.00;;;17.80;78.10;;;;;;4957872;29;20035;-71
2022/08/07 06:09:02;;;;;;;0.00;0.00;;;18.00;77.70;;;;;;4941415;29;20035;-70
2022/08/07 06:11:28;;;;;;;0.00;0.00;;;18.00;77.40;;;;;;4957736;29;20031;-69
2022/08/07 06:13:54;;;;;;;0.00;0.00;;;18.10;77.50;;;;;;4957804;29;20058;-69
2022/08/07 06:16:26;;;;;;;0.00;0.00;;;18.20;77.30;;;;;;4957706;29;20031;-71
2022/08/07 06:18:53;;;;;;;0.00;0.00;;;18.30;77.00;;;;;;4957605;29;20081;-70
2022/08/07 06:21:19;;;;;;;0.00;0.00;;;18.50;76.80;;;;;;4959137;28;20035;-68
2022/08/07 06:23:45;;;;;;;1.00;1.00;;;18.50;76.40;;;;;;4957520;28;20496;-69
2022/08/07 06:26:13;;;;;;;0.00;0.00;;;18.60;75.80;;;;;;4957599;28;20065;-68
2022/08/07 06:28:54;;;;;;;0.00;0.00;;;18.70;75.70;;;;;;4957449;28;20086;-69
2022/08/07 06:31:20;;;;;;;0.00;0.00;;;18.80;75.20;;;;;;4958170;29;20038;-68
2022/08/07 06:33:47;;;;;;;0.00;0.00;;;18.90;75.10;;;;;;4958084;29;20035;-69
2022/08/07 06:36:13;;;;;;;0.00;0.00;;;19.00;75.70;;;;;;4957635;28;20027;-68
2022/08/07 06:38:41;;;;;;;0.00;0.00;;;19.20;74.30;;;;;;4957729;29;20267;-68
2022/08/07 06:41:18;;;;;;;0.00;0.00;;;19.40;74.20;;;;;;4958798;28;20387;-68
2022/08/07 06:43:46;;;;;;;0.00;0.00;;;19.60;73.60;;;;;;4957518;28;20031;-70
2022/08/07 06:46:13;;;;;;;0.00;0.00;;;19.70;73.30;;;;;;4957569;28;20030;-69
2022/08/07 06:48:40;;;;;;;0.00;0.00;;;19.70;73.30;;;;;;4957344;28;20027;-69
2022/08/07 06:51:09;;;;;;;0.10;0.00;;;19.70;73.30;;;;;;4957045;28;20026;-68
2022/08/07 06:53:38;;;;;;;0.00;0.00;;;19.70;73.60;;;;;;4958441;29;20027;-69
2022/08/07 06:56:06;;;;;;;0.00;0.00;;;19.70;73.60;;;;;;4957446;28;20039;-69
2022/08/07 06:58:34;;;;;;;0.00;0.00;;;19.80;73.60;;;;;;4957105;29;20094;-69
2022/08/07 07:01:05;;;;;;;0.00;0.00;;;19.80;73.70;;;;;;4957094;29;20035;-68
2022/08/07 07:03:32;;;;;;;0.00;0.00;;;19.90;73.40;;;;;;4957820;28;20102;-69
2022/08/07 07:05:58;;;;;;;0.00;0.00;;;20.00;73.40;;;;;;4953567;28;20085;-69
2022/08/07 07:08:29;;;;;;;0.00;0.00;;;20.10;73.40;;;;;;4954422;29;20053;-70
2022/08/07 07:10:56;;;;;;;0.00;0.00;;;20.20;73.00;;;;;;4955350;29;20086;-69
2022/08/07 07:13:43;;;;;;;0.13;0.13;;;20.20;72.90;;;;;;4955415;29;20023;-69
2022/08/07 07:16:20;;;;;;;0.00;0.00;;;20.30;73.10;;;;;;4947819;29;20039;-70
2022/08/07 07:18:58;;;;;;;0.00;0.00;;;20.20;72.90;;;;;;4934680;29;20035;-69
2022/08/07 07:21:35;;;;;;;0.00;0.00;;;20.40;73.20;;;;;;4935067;29;20027;-70
2022/08/07 07:24:02;;;;;;;0.00;0.00;;;20.50;72.50;;;;;;4936197;29;20031;-70
2022/08/07 07:26:31;;;;;;;0.63;0.25;;;20.60;72.90;;;;;;4935940;29;20035;-70
2022/08/07 07:29:04;;;;;;;0.00;0.00;;;20.70;72.70;;;;;;4945403;28;20028;-70
2022/08/07 07:31:54;;;;;;;0.00;0.00;;;20.90;72.30;;;;;;4966558;28;20058;-70
2022/08/07 07:34:27;;;;;;;0.00;0.00;;;21.00;72.10;;;;;;4965176;28;20031;-69
2022/08/07 07:36:53;;;;;;;0.00;0.00;;;21.00;72.30;;;;;;4954046;28;20027;-69
2022/08/07 07:39:23;;;;;;;0.10;0.00;;;21.00;72.10;;;;;;4953614;29;20039;-67
2022/08/07 07:41:50;;;;;;;0.03;0.03;;;21.00;72.30;;;;;;4954001;29;20488;-67
2022/08/07 07:44:19;;;;;;;0.00;0.00;;;20.90;72.60;;;;;;4953533;29;20039;-66
2022/08/07 07:46:47;;;;;;;0.00;0.00;;;20.90;72.70;;;;;;4953628;28;20035;-66
2022/08/07 07:49:16;;;;;;;0.10;0.10;;;20.90;72.20;;;;;;4935625;29;20031;-67
2022/08/07 07:51:46;;;;;;;0.00;0.00;;;21.00;72.50;;;;;;4948770;29;20042;-66
2022/08/07 07:54:13;;;;;;;0.00;0.00;;;20.90;72.90;;;;;;4953566;29;20106;-66
2022/08/07 07:56:42;;;;;;;1.48;0.22;;;21.00;72.70;;;;;;4953577;29;20512;-66
2022/08/07 07:59:09;;;;;;;0.00;0.00;;;21.20;72.40;;;;;;4937364;29;20035;-66
2022/08/07 08:01:41;;;;;;;0.00;0.00;;;21.20;72.00;;;;;;4953514;29;20039;-66
2022/08/07 08:04:07;;;;;;;0.00;0.00;;;21.20;72.60;;;;;;4953337;29;20495;-66
2022/08/07 08:06:34;;;;;;;0.00;0.00;;;21.40;73.60;;;;;;4953571;28;20058;-67
2022/08/07 08:09:04;;;;;;;0.00;0.00;;;21.50;73.50;;;;;;4954290;29;20031;-67
2022/08/07 08:11:31;;;;;;;0.00;0.00;;;21.50;73.70;;;;;;4954602;29;20031;-66
2022/08/07 08:13:57;;;;;;;0.00;0.00;;;21.50;73.30;;;;;;4954131;29;20039;-67
2022/08/07 08:16:37;;;;;;;0.10;0.10;;;21.50;73.50;;;;;;4954309;28;20506;-67
2022/08/07 08:19:05;;;;;;;;;;;21.70;73.30;;;;;;4954741;29;20067;-67
2022/08/07 08:27:13;;;;;;;0.00;0.00;;;21.80;73.20;;;;;;4923864;29;20054;-67
2022/08/07 08:30:05;;;;;;;0.10;0.10;;;21.90;74.20;;;;;;4952781;29;20035;-66
2022/08/07 08:32:46;;;;;;;0.00;0.00;;;22.00;74.00;;;;;;4953923;29;20126;-66
2022/08/07 08:35:17;;;;;;;;;;;22.10;72.30;;;;;;4953157;29;20027;-66
2022/08/07 08:37:46;;;;;;;0.25;0.25;;;22.10;72.70;;;;;;4985254;28;19938;-66
2022/08/07 08:40:51;;;;;;;0.00;0.00;;;22.20;72.90;;;;;;4952482;29;20027;-66
2022/08/07 08:43:26;;;;;;;0.00;0.00;;;22.20;72.70;;;;;;4943900;29;20098;-66
2022/08/07 08:46:03;;;;;;;0.10;0.10;;;22.30;72.60;;;;;;4952664;28;20050;-68
2022/08/07 08:49:12;;;;;;;0.00;0.00;;;22.40;72.90;;;;;;4952512;29;20042;-69
2022/08/07 08:51:56;;;;;;;0.00;0.00;;;22.50;72.90;;;;;;4953707;28;20031;-68
2022/08/07 08:54:57;;;;;;;0.00;0.00;;;22.50;72.90;;;;;;4952528;29;20028;-68
2022/08/07 08:57:43;;;;;;;0.00;0.00;;;22.70;71.60;;;;;;4952415;28;20066;-68
2022/08/07 09:00:10;;;;;;;0.10;0.10;;;22.80;72.70;;;;;;4953422;29;20093;-68
2022/08/07 09:02:51;;;;;;;0.03;0.03;;;23.00;72.50;;;;;;4951950;29;20711;-68
2022/08/07 09:05:58;;;;;;;0.10;0.10;;;23.10;72.40;;;;;;4952263;29;20515;-67
2022/08/07 09:08:38;;;;;;;0.00;0.00;;;23.10;72.90;;;;;;4951895;29;20038;-70
2022/08/07 09:11:12;;;;;;;0.00;0.00;;;23.20;72.60;;;;;;4953727;29;20046;-70
2022/08/07 09:14:00;;;;;;;0.00;0.00;;;23.50;71.60;;;;;;4952133;29;20031;-68
2022/08/07 09:17:01;;;;;;;0.00;0.00;;;23.60;70.60;;;;;;4952355;28;20081;-68
2022/08/07 09:19:59;;;;;;;0.00;0.00;;;23.70;70.40;;;;;;4951650;29;20031;-68
2022/08/07 09:22:42;;;;;;;0.20;0.20;;;23.90;70.20;;;;;;4953146;28;20058;-68
2022/08/07 09:25:24;;;;;;;0.00;0.00;;;24.10;70.00;;;;;;4953184;29;20039;-68
2022/08/07 09:27:53;;;;;;;0.00;0.00;;;24.20;69.40;;;;;;4951519;28;20097;-69
2022/08/07 09:30:22;;;;;;;0.05;0.05;;;24.40;69.70;;;;;;4952999;29;20039;-69
2022/08/07 09:33:26;;;;;;;0.10;0.10;;;24.40;71.20;;;;;;4951564;29;20054;-68
2022/08/07 09:36:05;;;;;;;0.00;0.00;;;24.50;69.20;;;;;;4952064;28;20047;-68
2022/08/07 09:38:48;;;;;;;0.00;0.00;;;24.60;69.20;;;;;;4952197;29;20058;-68
2022/08/07 09:41:35;;;;;;;0.40;0.40;;;24.50;69.10;;;;;;4952984;29;20484;-68
2022/08/07 09:44:26;;;;;;;0.38;0.25;;;24.50;69.20;;;;;;4951474;29;20113;-68
2022/08/07 09:47:14;;;;;;;;;;;24.60;69.00;;;;;;4952210;28;20049;-67
2022/08/07 09:50:08;;;;;;;0.00;0.00;;;24.60;68.90;;;;;;4952153;28;19918;-70
2022/08/07 09:52:58;;;;;;;0.00;0.00;;;24.60;68.70;;;;;;4952616;29;20032;-70
2022/08/07 09:55:58;;;;;;;0.00;0.00;;;24.60;68.90;;;;;;4951918;29;20031;-68
2022/08/07 09:59:00;;;;;;;0.00;0.00;;;24.80;68.70;;;;;;4952513;29;20067;-69
2022/08/07 10:01:56;;;;;;;0.13;0.08;;;25.30;68.40;;;;;;4936235;29;20061;-68
2022/08/07 10:05:15;;;;;;;0.00;0.00;;;25.40;67.80;;;;;;4951151;29;20043;-68
2022/08/07 10:08:01;;;;;;;0.00;0.00;;;25.60;67.40;;;;;;4953210;28;20115;-67
2022/08/07 10:11:01;;;;;;;0.73;0.22;;;25.70;66.70;;;;;;4952246;29;20046;-69
2022/08/07 10:13:42;;;;;;;0.00;0.00;;;25.90;65.70;;;;;;4952541;29;20033;-67
2022/08/07 10:16:11;;;;;;;0.00;0.00;;;25.90;64.60;;;;;;4952822;28;20038;-66
2022/08/07 10:19:12;;;;;;;0.15;0.15;;;26.10;64.20;;;;;;4951810;29;20076;-66
2022/08/07 10:22:10;;;;;;;0.05;0.03;;;26.00;63.40;;;;;;4952946;29;20035;-69
2022/08/07 10:25:20;;;;;;;0.08;0.08;;;26.10;63.90;;;;;;4936871;29;20122;-66
2022/08/07 10:28:04;;;;;;;0.00;0.00;;;26.30;63.80;;;;;;4952487;28;20407;-66
2022/08/07 10:30:51;;;;;;;0.00;0.00;;;26.70;62.40;;;;;;4951102;29;20027;-66
2022/08/07 10:33:28;;;;;;;0.00;0.00;;;27.00;60.10;;;;;;4950991;29;20027;-66
2022/08/07 10:36:32;;;;;;;0.00;0.00;;;26.70;60.10;;;;;;4933142;29;20051;-66
2022/08/07 10:39:17;;;;;;;0.15;0.10;;;26.90;59.80;;;;;;4946944;28;20055;-67
2022/08/07 10:42:28;;;;;;;0.15;0.10;;;27.00;60.20;;;;;;4951722;29;20023;-66
2022/08/07 10:45:34;;;;;;;0.00;0.00;;;27.30;59.40;;;;;;4935788;29;20028;-67
2022/08/07 10:48:37;;;;;;;0.00;0.00;;;27.50;60.20;;;;;;4935767;29;20032;-66
2022/08/07 10:51:16;;;;;;;0.00;0.00;;;27.60;59.60;;;;;;4936320;29;20035;-67
2022/08/07 10:54:15;;;;;;;0.00;0.00;;;27.70;58.70;;;;;;4950263;29;20034;-66
2022/08/07 10:57:36;;;;;;;0.13;0.00;;;27.70;58.80;;;;;;4935472;29;20027;-67
2022/08/07 11:00:14;;;;;;;;;;;27.60;58.30;;;;;;4948939;29;20103;-70
2022/08/07 11:03:09;;;;;;;0.00;0.00;;;27.80;58.60;;;;;;4936090;29;19918;-72
2022/08/07 11:06:19;;;;;;;0.05;0.05;;;28.10;56.90;;;;;;4949098;29;20451;-70
2022/08/07 11:09:13;;;;;;;0.00;0.00;;;27.50;56.80;;;;;;4935893;29;20028;-70
2022/08/07 11:11:52;;;;;;;0.10;0.10;;;27.20;56.80;;;;;;4950831;29;20841;-70
2022/08/07 11:14:37;;;;;;;0.00;0.00;;;27.50;57.90;;;;;;4950375;29;20028;-70
2022/08/07 11:17:25;;;;;;;0.10;0.10;;;28.10;56.80;;;;;;4936286;29;20436;-69
2022/08/07 11:20:10;;;;;;;0.00;0.00;;;28.30;56.40;;;;;;4948913;29;20175;-69
2022/08/07 11:22:45;;;;;;;0.52;0.32;;;28.00;55.60;;;;;;4950411;29;20034;-70
2022/08/07 11:25:35;;;;;;;0.13;0.08;;;28.30;55.70;;;;;;4950887;29;20056;-69
2022/08/07 11:28:13;;;;;;;;;;;28.80;55.80;;;;;;4935227;29;20500;-68
2022/08/07 11:31:04;;;;;;;0.00;0.00;;;28.70;54.70;;;;;;4935973;29;19919;-69
2022/08/07 11:34:17;;;;;;;0.00;0.00;;;28.80;55.00;;;;;;4949514;29;20036;-70
2022/08/07 11:37:23;;;;;;;0.00;0.00;;;28.20;53.90;;;;;;4945304;28;20575;-70
2022/08/07 11:40:23;;;;;;;0.00;0.00;;;28.60;55.10;;;;;;4932719;29;20522;-70
2022/08/07 11:43:17;;;;;;;0.20;0.10;;;28.90;54.20;;;;;;4954707;28;20117;-70
2022/08/07 11:46:02;;;;;;;0.00;0.00;;;29.40;54.70;;;;;;4954938;28;20035;-70
2022/08/07 11:49:02;;;;;;;0.00;0.00;;;29.60;54.30;;;;;;4954027;29;20170;-70
2022/08/07 11:52:31;;;;;;;0.00;0.00;;;29.80;52.90;;;;;;4953407;28;20039;-70
2022/08/07 11:55:22;;;;;;;0.00;0.00;;;29.30;52.60;;;;;;4929981;29;20043;-70
2022/08/07 11:58:06;;;;;;;0.00;0.00;;;29.50;53.70;;;;;;4933262;29;20028;-69
2022/08/07 12:00:47;;;;;;;0.13;0.13;;;29.60;53.70;;;;;;4943768;29;20138;-70
2022/08/07 12:04:01;;;;;;;;;;;29.50;52.40;;;;;;4937936;29;20493;-70
2022/08/07 12:06:53;;;;;;;0.10;0.08;;;29.90;52.40;;;;;;4944607;28;19917;-70
2022/08/07 12:09:36;;;;;;;0.00;0.00;;;30.30;52.10;;;;;;4937402;29;20085;-71
2022/08/07 12:12:10;;;;;;;1.38;0.45;;;29.70;52.20;;;;;;4953280;29;20062;-70
2022/08/07 12:15:12;;;;;;;0.00;0.00;;;29.70;51.90;;;;;;4954859;28;20027;-70
2022/08/07 12:18:24;;;;;;;0.20;0.13;;;30.00;52.10;;;;;;4953097;29;20038;-70
2022/08/07 12:21:13;;;;;;;0.10;0.08;;;30.10;51.60;;;;;;4952967;29;20070;-70
2022/08/07 12:24:07;;;;;;;0.00;0.00;;;29.70;51.80;;;;;;4954357;28;20114;-70
2022/08/07 12:26:51;;;;;;;0.00;0.00;;;29.50;52.40;;;;;;4953072;29;20656;-70
2022/08/07 12:29:41;;;;;;;0.10;0.10;;;29.20;51.70;;;;;;4952833;29;20043;-71
2022/08/07 12:32:30;;;;;;;0.00;0.00;;;29.20;52.30;;;;;;4952986;29;20027;-69
2022/08/07 12:35:01;;;;;;;0.05;0.05;;;29.90;51.10;;;;;;4954024;28;20101;-69
2022/08/07 12:37:29;;;;;;;0.10;0.00;;;30.30;51.30;;;;;;4953177;28;20098;-70
2022/08/07 12:39:57;;;;;;;0.25;0.20;;;30.30;50.80;;;;;;4952596;29;20039;-70
2022/08/07 12:42:27;;;;;;;0.20;0.10;;;30.40;51.70;;;;;;4952351;29;20472;-70
2022/08/07 12:44:55;;;;;;;;;;;30.30;50.60;;;;;;4953169;29;20513;-70
2022/08/07 12:47:45;;;;;;;0.00;0.00;;;29.60;50.60;;;;;;4984693;28;19968;-70
2022/08/07 12:50:44;;;;;;;0.00;0.00;;;29.90;51.30;;;;;;4952020;29;20395;-71
2022/08/07 12:53:26;;;;;;;0.10;0.10;;;29.90;50.70;;;;;;4952515;29;20031;-71
2022/08/07 12:56:03;;;;;;;0.15;0.13;;;29.90;51.00;;;;;;4953825;28;20027;-70
2022/08/07 12:58:36;;;;;;;0.10;0.10;;;30.30;51.60;;;;;;4952703;29;20475;-70
2022/08/07 13:01:21;;;;;;;0.00;0.00;;;30.80;50.80;;;;;;4952265;29;20069;-69
2022/08/07 13:04:34;;;;;;;0.00;0.00;;;30.90;50.60;;;;;;4952245;28;20031;-70
2022/08/07 13:07:37;;;;;;;0.10;0.05;;;31.00;50.90;;;;;;4952830;28;20023;-68
2022/08/07 13:10:48;;;;;;;0.00;0.00;;;31.30;50.60;;;;;;4951682;29;20122;-69
2022/08/07 13:13:27;;;;;;;;;;;31.30;49.20;;;;;;4953053;29;20028;-69
2022/08/07 13:16:21;;;;;;;0.00;0.00;;;31.40;49.20;;;;;;4984325;28;19981;-69
2022/08/07 13:19:04;;;;;;;0.40;0.32;;;31.70;49.20;;;;;;4952056;29;20388;-69
2022/08/07 13:22:00;;;;;;;0.00;0.00;;;32.10;49.20;;;;;;4953289;29;20023;-71
2022/08/07 13:24:55;;;;;;;0.28;0.17;;;32.20;49.00;;;;;;4951463;29;20035;-69
2022/08/07 13:27:40;;;;;;;0.00;0.00;;;31.90;48.90;;;;;;4948865;28;20392;-71
2022/08/07 13:30:14;;;;;;;0.00;0.00;;;31.90;49.60;;;;;;4959632;28;20479;-68
2022/08/07 13:33:08;;;;;;;0.00;0.00;;;32.20;48.40;;;;;;4936850;29;20031;-68
2022/08/07 13:35:55;;;;;;;0.10;0.00;;;31.80;47.80;;;;;;4951491;29;20400;-69
2022/08/07 13:38:50;;;;;;;0.00;0.00;;;31.70;48.50;;;;;;4951872;29;20039;-69
2022/08/07 13:41:49;;;;;;;0.00;0.00;;;32.00;48.70;;;;;;4951944;29;20159;-69
2022/08/07 13:44:25;;;;;;;0.80;0.55;;;33.00;48.70;;;;;;4951711;29;20035;-69